Time;durP1;ratioP1;P1;durP2;ratioP2;P2;SDS_P1;SDS_P2;PMS_P1;PMS_P2;Temp;Humidity;BMP_temperature;BMP_pressure;BME280_temperature;BME280_humidity;BME280_pressure;Samples;Min_cycle;Max_cycle;Signal;HPM_P1;HPM_P2
2022/10/21 00:00:24;;;;;;;34.60;13.55;;;;;;;;;;1036121;28;20022;-76
2022/10/21 00:00:55;;;;;;;38.80;14.18;;;;;;;;;;1040013;28;20432;-76
2022/10/21 00:01:26;;;;;;;35.85;14.25;;;;;;;;;;1036087;28;20416;-76
2022/10/21 00:01:56;;;;;;;30.63;12.10;;;;;;;;;;1040156;28;20025;-76
2022/10/21 00:02:27;;;;;;;24.80;11.77;;;;;;;;;;1040084;28;20420;-76
2022/10/21 00:02:57;;;;;;;35.03;13.02;;;;;;;;;;1035930;28;20424;-76
2022/10/21 00:03:28;;;;;;;38.03;12.13;;;;;;;;;;1035763;28;20444;-76
2022/10/21 00:04:00;;;;;;;28.88;12.02;;;;;;;;;;1036128;28;20108;-76
2022/10/21 00:04:31;;;;;;;40.63;15.20;;;;;;;;;;1036123;28;20064;-76
2022/10/21 00:05:01;;;;;;;37.45;13.23;;;;;;;;;;1036408;28;20080;-76
2022/10/21 00:05:32;;;;;;;30.33;11.73;;;;;;;;;;1039912;28;20045;-76
2022/10/21 00:06:03;;;;;;;25.40;10.18;;;;;;;;;;1040221;28;20068;-76
2022/10/21 00:06:33;;;;;;;26.98;11.15;;;;;;;;;;1039940;28;20112;-76
2022/10/21 00:07:04;;;;;;;41.72;11.95;;;;;;;;;;1040529;28;20111;-76
2022/10/21 00:07:35;;;;;;;23.20;11.00;;;;;;;;;;1039787;28;20033;-76
2022/10/21 00:08:05;;;;;;;24.35;11.40;;;;;;;;;;1036089;28;20511;-76
2022/10/21 00:08:36;;;;;;;35.17;11.90;;;;;;;;;;1035777;28;20032;-76
2022/10/21 00:09:06;;;;;;;26.60;12.20;;;;;;;;;;1036182;28;20084;-76
2022/10/21 00:09:37;;;;;;;29.13;11.48;;;;;;;;;;1039518;28;20080;-76
2022/10/21 00:10:08;;;;;;;26.67;12.10;;;;;;;;;;1040403;28;20044;-76
2022/10/21 00:10:39;;;;;;;24.33;9.35;;;;;;;;;;1040273;28;20064;-76
2022/10/21 00:11:09;;;;;;;20.85;9.38;;;;;;;;;;1040430;28;20029;-76
2022/10/21 00:11:40;;;;;;;23.08;9.80;;;;;;;;;;1039854;28;20056;-76
2022/10/21 00:12:11;;;;;;;28.15;11.07;;;;;;;;;;1036001;28;20402;-76
2022/10/21 00:12:41;;;;;;;25.45;11.77;;;;;;;;;;1035910;28;20124;-76
2022/10/21 00:13:12;;;;;;;33.30;10.98;;;;;;;;;;1036118;28;20036;-76
2022/10/21 00:13:42;;;;;;;26.23;9.80;;;;;;;;;;1039863;28;20025;-76
2022/10/21 00:14:13;;;;;;;25.00;11.07;;;;;;;;;;1035845;28;20017;-76
2022/10/21 00:14:43;;;;;;;24.45;10.45;;;;;;;;;;1035892;28;20153;-76
2022/10/21 00:15:14;;;;;;;26.50;11.80;;;;;;;;;;1031906;28;20049;-76
2022/10/21 00:15:45;;;;;;;30.30;11.38;;;;;;;;;;1031869;28;20026;-76
2022/10/21 00:16:16;;;;;;;21.20;11.70;;;;;;;;;;1035815;28;20072;-76
2022/10/21 00:16:47;;;;;;;24.73;9.57;;;;;;;;;;1035936;28;20120;-76
2022/10/21 00:17:17;;;;;;;31.90;11.95;;;;;;;;;;1035879;28;20096;-76
2022/10/21 00:17:48;;;;;;;17.58;8.57;;;;;;;;;;1036216;28;20634;-76
2022/10/21 00:18:19;;;;;;;33.65;8.88;;;;;;;;;;1036256;28;20030;-75
2022/10/21 00:18:49;;;;;;;19.63;8.55;;;;;;;;;;1035841;28;20435;-75
2022/10/21 00:19:20;;;;;;;21.83;9.98;;;;;;;;;;1035841;28;20429;-75
2022/10/21 00:19:50;;;;;;;20.73;9.57;;;;;;;;;;1036025;28;20057;-76
2022/10/21 00:20:21;;;;;;;24.83;9.85;;;;;;;;;;1035976;28;20105;-75
2022/10/21 00:20:51;;;;;;;27.67;8.40;;;;;;;;;;1036050;28;20434;-75
2022/10/21 00:21:22;;;;;;;19.60;9.98;;;;;;;;;;1039932;28;20567;-75
2022/10/21 00:21:53;;;;;;;20.38;8.27;;;;;;;;;;1040094;28;20112;-75
2022/10/21 00:22:23;;;;;;;38.85;9.13;;;;;;;;;;1040036;28;20033;-75
2022/10/21 00:22:54;;;;;;;29.75;8.45;;;;;;;;;;1039891;28;20025;-75
2022/10/21 00:23:25;;;;;;;26.00;9.35;;;;;;;;;;1039814;28;20021;-75
2022/10/21 00:23:55;;;;;;;21.30;9.57;;;;;;;;;;1035778;28;20029;-75
2022/10/21 00:24:26;;;;;;;20.08;8.52;;;;;;;;;;1035947;28;20033;-75
2022/10/21 00:24:57;;;;;;;34.10;9.15;;;;;;;;;;1035962;28;20510;-75
2022/10/21 00:25:27;;;;;;;25.63;9.48;;;;;;;;;;1035656;28;20118;-76
2022/10/21 00:25:58;;;;;;;26.90;9.60;;;;;;;;;;1035969;28;20624;-76
2022/10/21 00:26:28;;;;;;;23.70;9.25;;;;;;;;;;1031695;28;20515;-76
2022/10/21 00:26:59;;;;;;;27.13;9.82;;;;;;;;;;1031964;28;20018;-76
2022/10/21 00:27:29;;;;;;;32.92;9.50;;;;;;;;;;1035691;28;20209;-76
2022/10/21 00:28:00;;;;;;;17.35;7.38;;;;;;;;;;1036118;28;20496;-76
2022/10/21 00:28:31;;;;;;;18.67;8.63;;;;;;;;;;1035626;28;20048;-76
2022/10/21 00:29:01;;;;;;;17.67;6.78;;;;;;;;;;1035926;28;20022;-76
2022/10/21 00:29:32;;;;;;;19.35;8.15;;;;;;;;;;1035758;28;20088;-76
2022/10/21 00:30:04;;;;;;;16.83;6.97;;;;;;;;;;1035985;28;20033;-76
2022/10/21 00:30:34;;;;;;;27.90;8.25;;;;;;;;;;1035712;28;20068;-75
2022/10/21 00:31:06;;;;;;;11.30;5.78;;;;;;;;;;1035846;28;20472;-76
2022/10/21 00:31:37;;;;;;;16.08;7.10;;;;;;;;;;1035862;28;20013;-76
2022/10/21 00:32:07;;;;;;;29.90;7.75;;;;;;;;;;1036002;28;20033;-75
2022/10/21 00:32:38;;;;;;;17.23;8.40;;;;;;;;;;1031981;28;20030;-75
2022/10/21 00:33:09;;;;;;;30.80;8.30;;;;;;;;;;1036178;28;20028;-75
2022/10/21 00:33:39;;;;;;;41.33;9.30;;;;;;;;;;1035940;28;20549;-76
2022/10/21 00:34:10;;;;;;;21.50;8.52;;;;;;;;;;1039618;28;20053;-75
2022/10/21 00:34:42;;;;;;;21.67;10.00;;;;;;;;;;1039856;28;20027;-75
2022/10/21 00:35:12;;;;;;;26.05;8.63;;;;;;;;;;1039997;28;20036;-75
2022/10/21 00:35:48;;;;;;;31.40;9.10;;;;;;;;;;1039767;28;20096;-76
2022/10/21 00:36:19;;;;;;;18.60;8.20;;;;;;;;;;1039140;28;20037;-76
2022/10/21 00:36:49;;;;;;;20.50;8.15;;;;;;;;;;1035442;28;20026;-76
2022/10/21 00:37:20;;;;;;;24.33;8.32;;;;;;;;;;1031420;28;20113;-76
2022/10/21 00:37:50;;;;;;;19.77;9.05;;;;;;;;;;1031927;28;20630;-76
2022/10/21 00:38:21;;;;;;;20.45;8.52;;;;;;;;;;1032491;28;20030;-75
2022/10/21 00:38:52;;;;;;;22.08;9.90;;;;;;;;;;1035521;28;20033;-75
2022/10/21 00:39:22;;;;;;;23.92;9.38;;;;;;;;;;1035926;28;20033;-75
2022/10/21 00:39:53;;;;;;;28.35;9.50;;;;;;;;;;1036450;28;20790;-75
2022/10/21 00:40:23;;;;;;;18.35;7.00;;;;;;;;;;1035978;28;20436;-75
2022/10/21 00:40:54;;;;;;;24.63;9.32;;;;;;;;;;1035895;28;20064;-75
2022/10/21 00:41:24;;;;;;;28.27;8.93;;;;;;;;;;1035921;28;20040;-75
2022/10/21 00:41:55;;;;;;;21.15;8.70;;;;;;;;;;1036068;28;20370;-75
2022/10/21 00:42:37;;;;;;;21.70;8.15;;;;;;;;;;1036019;28;20430;-76
2022/10/21 00:43:08;;;;;;;17.88;8.13;;;;;;;;;;1036014;28;20036;-75
2022/10/21 00:43:57;;;;;;;17.90;8.07;;;;;;;;;;1038493;28;20053;-75
2022/10/21 00:44:28;;;;;;;16.77;8.75;;;;;;;;;;1035601;28;20486;-75
2022/10/21 00:45:05;;;;;;;31.08;10.80;;;;;;;;;;1035536;28;20120;-75
2022/10/21 00:45:35;;;;;;;30.25;12.07;;;;;;;;;;1035420;28;20123;-75
2022/10/21 00:46:06;;;;;;;32.08;15.45;;;;;;;;;;1035973;28;20021;-75
2022/10/21 00:46:40;;;;;;;19.73;8.43;;;;;;;;;;1035600;28;20022;-75
2022/10/21 00:47:14;;;;;;;28.88;10.20;;;;;;;;;;1035721;28;20033;-76
2022/10/21 00:47:45;;;;;;;26.15;8.77;;;;;;;;;;1035680;28;20030;-76
2022/10/21 00:48:15;;;;;;;27.65;11.90;;;;;;;;;;1035681;28;20096;-76
2022/10/21 00:48:52;;;;;;;30.92;13.55;;;;;;;;;;1036141;28;20037;-76
2022/10/21 00:49:31;;;;;;;36.67;15.52;;;;;;;;;;1035464;28;20040;-76
2022/10/21 00:50:03;;;;;;;45.40;16.90;;;;;;;;;;1035838;28;20112;-76
2022/10/21 00:50:36;;;;;;;30.95;16.52;;;;;;;;;;1035866;28;20038;-76
2022/10/21 00:51:11;;;;;;;34.45;16.40;;;;;;;;;;1035737;28;20065;-75
2022/10/21 00:51:44;;;;;;;33.85;13.75;;;;;;;;;;1036101;28;20038;-75
2022/10/21 00:52:17;;;;;;;29.80;14.75;;;;;;;;;;1036136;28;20022;-76
2022/10/21 00:52:47;;;;;;;34.97;15.30;;;;;;;;;;1036058;28;20026;-76
2022/10/21 00:53:18;;;;;;;46.67;16.33;;;;;;;;;;1035084;28;20022;-76
2022/10/21 00:53:49;;;;;;;31.35;15.45;;;;;;;;;;1035208;28;20113;-76
2022/10/21 00:54:21;;;;;;;30.88;15.30;;;;;;;;;;1036030;28;20030;-76
2022/10/21 00:54:54;;;;;;;22.30;13.98;;;;;;;;;;1035399;28;20033;-76
2022/10/21 00:55:26;;;;;;;42.08;14.80;;;;;;;;;;1035739;28;20509;-76
2022/10/21 00:56:01;;;;;;;36.53;15.52;;;;;;;;;;1036356;28;20033;-76
2022/10/21 00:56:33;;;;;;;34.67;15.20;;;;;;;;;;1039967;28;20032;-75
2022/10/21 00:57:04;;;;;;;41.42;15.68;;;;;;;;;;1040101;28;20029;-76
2022/10/21 00:57:35;;;;;;;58.67;24.65;;;;;;;;;;1039954;28;20051;-76
2022/10/21 00:58:06;;;;;;;88.93;31.33;;;;;;;;;;1040185;28;20127;-76
2022/10/21 00:58:36;;;;;;;103.57;36.30;;;;;;;;;;1039258;28;20436;-76
2022/10/21 00:59:07;;;;;;;123.05;46.22;;;;;;;;;;1039849;28;20029;-76
2022/10/21 00:59:39;;;;;;;129.68;46.22;;;;;;;;;;1039723;28;20036;-76
2022/10/21 01:00:10;;;;;;;143.75;46.72;;;;;;;;;;1039865;28;20118;-75
2022/10/21 01:00:40;;;;;;;116.70;43.75;;;;;;;;;;1040102;28;20538;-76
2022/10/21 01:01:11;;;;;;;75.68;29.95;;;;;;;;;;1040084;28;20473;-76
2022/10/21 01:01:42;;;;;;;72.38;32.03;;;;;;;;;;1031686;28;20455;-76
2022/10/21 01:02:12;;;;;;;58.25;25.63;;;;;;;;;;1040133;28;20033;-76
2022/10/21 01:02:43;;;;;;;53.55;26.02;;;;;;;;;;1039624;28;20032;-76
2022/10/21 01:03:14;;;;;;;68.22;28.25;;;;;;;;;;1039734;28;20025;-76
2022/10/21 01:03:44;;;;;;;72.85;29.02;;;;;;;;;;1039643;28;20140;-76
2022/10/21 01:04:15;;;;;;;67.05;29.75;;;;;;;;;;1039727;28;20037;-76
2022/10/21 01:04:46;;;;;;;69.22;27.85;;;;;;;;;;1040146;28;20938;-76
2022/10/21 01:05:17;;;;;;;69.70;29.50;;;;;;;;;;1040019;28;20036;-76
2022/10/21 01:05:48;;;;;;;67.35;28.27;;;;;;;;;;1039434;28;20563;-75
2022/10/21 01:06:20;;;;;;;60.20;26.15;;;;;;;;;;1039551;28;20029;-75
2022/10/21 01:06:50;;;;;;;73.57;28.58;;;;;;;;;;1039431;28;20026;-75
2022/10/21 01:07:21;;;;;;;50.88;19.00;;;;;;;;;;1039761;28;20032;-75
2022/10/21 01:07:51;;;;;;;48.13;19.05;;;;;;;;;;1035771;28;20034;-75
2022/10/21 01:08:23;;;;;;;49.83;19.27;;;;;;;;;;1035707;28;20029;-76
2022/10/21 01:08:55;;;;;;;82.25;24.85;;;;;;;;;;1035498;28;20548;-76
2022/10/21 01:09:27;;;;;;;100.10;32.00;;;;;;;;;;1035741;28;20022;-76
2022/10/21 01:09:58;;;;;;;87.45;30.30;;;;;;;;;;1039772;28;20539;-76
2022/10/21 01:10:28;;;;;;;81.95;27.73;;;;;;;;;;1039737;28;20021;-76
2022/10/21 01:10:59;;;;;;;77.00;26.77;;;;;;;;;;1040026;28;20056;-76
2022/10/21 01:11:33;;;;;;;75.68;27.23;;;;;;;;;;1039484;28;20025;-76
2022/10/21 01:12:06;;;;;;;62.03;23.25;;;;;;;;;;1035733;28;20379;-76
2022/10/21 01:12:47;;;;;;;52.20;19.85;;;;;;;;;;1040245;28;20014;-75
2022/10/21 01:13:38;;;;;;;64.70;21.35;;;;;;;;;;1039678;28;20033;-76
2022/10/21 01:14:18;;;;;;;64.22;20.30;;;;;;;;;;1039649;28;20033;-76
2022/10/21 01:14:55;;;;;;;59.05;20.25;;;;;;;;;;1038779;28;20025;-76
2022/10/21 01:15:34;;;;;;;65.65;23.75;;;;;;;;;;1035250;28;20124;-76
2022/10/21 01:16:10;;;;;;;50.70;17.20;;;;;;;;;;1037098;28;20030;-76
2022/10/21 01:16:46;;;;;;;72.60;19.85;;;;;;;;;;1035368;28;20025;-76
2022/10/21 01:17:29;;;;;;;63.63;21.33;;;;;;;;;;1038050;28;20076;-76
2022/10/21 01:18:03;;;;;;;58.15;20.10;;;;;;;;;;1039415;28;20440;-76
2022/10/21 01:18:40;;;;;;;56.28;20.63;;;;;;;;;;1039119;28;20112;-76
2022/10/21 01:19:19;;;;;;;29.77;10.95;;;;;;;;;;1038632;28;20437;-76
2022/10/21 01:19:56;;;;;;;47.25;16.50;;;;;;;;;;1038168;28;20040;-76
2022/10/21 01:20:45;;;;;;;36.33;13.95;;;;;;;;;;1037863;28;20032;-76
2022/10/21 01:21:37;;;;;;;31.97;12.00;;;;;;;;;;1036554;28;20022;-76
2022/10/21 01:22:19;;;;;;;37.60;14.25;;;;;;;;;;1037817;28;20686;-76
2022/10/21 01:22:59;;;;;;;31.48;14.02;;;;;;;;;;1037372;28;20045;-76
2022/10/21 01:23:43;;;;;;;28.88;12.90;;;;;;;;;;1033708;28;20076;-76
2022/10/21 01:24:37;;;;;;;73.40;24.73;;;;;;;;;;1030224;28;20125;-76
2022/10/21 01:25:25;;;;;;;157.07;50.05;;;;;;;;;;1031593;28;20026;-76
2022/10/21 01:26:08;;;;;;;114.95;40.38;;;;;;;;;;1033173;28;20068;-76
2022/10/21 01:26:56;;;;;;;52.88;20.63;;;;;;;;;;1033504;28;20045;-76
2022/10/21 01:27:45;;;;;;;74.60;26.63;;;;;;;;;;1031271;28;20057;-76
2022/10/21 01:28:16;;;;;;;87.78;28.80;;;;;;;;;;1035251;28;20022;-76
2022/10/21 01:28:56;;;;;;;102.80;37.15;;;;;;;;;;1036339;28;20060;-77
2022/10/21 01:29:31;;;;;;;136.48;43.67;;;;;;;;;;1040188;28;20052;-77
2022/10/21 01:30:08;;;;;;;117.80;36.22;;;;;;;;;;1038558;28;20030;-78
2022/10/21 01:30:41;;;;;;;103.53;35.60;;;;;;;;;;1036556;28;20093;-79
2022/10/21 01:31:18;;;;;;;96.22;31.45;;;;;;;;;;1030932;28;20030;-77
2022/10/21 01:31:54;;;;;;;85.30;27.83;;;;;;;;;;1033115;28;20030;-77
2022/10/21 01:32:37;;;;;;;51.67;20.15;;;;;;;;;;1034449;28;20026;-78
2022/10/21 01:33:10;;;;;;;45.30;16.17;;;;;;;;;;1038074;28;20025;-78
2022/10/21 01:33:41;;;;;;;53.83;20.55;;;;;;;;;;1037181;28;20029;-78
2022/10/21 01:34:30;;;;;;;52.25;19.13;;;;;;;;;;1037484;28;20029;-78
2022/10/21 01:35:07;;;;;;;60.05;20.85;;;;;;;;;;1035835;28;20030;-78
2022/10/21 01:35:54;;;;;;;59.15;23.10;;;;;;;;;;1036392;28;20142;-77
2022/10/21 01:36:44;;;;;;;37.80;15.48;;;;;;;;;;1034992;28;20057;-77
2022/10/21 01:37:17;;;;;;;27.75;11.18;;;;;;;;;;1037505;28;20013;-78
2022/10/21 01:37:48;;;;;;;44.65;14.50;;;;;;;;;;1035061;28;20091;-78
2022/10/21 01:38:28;;;;;;;32.00;12.13;;;;;;;;;;1035879;28;20106;-78
2022/10/21 01:39:07;;;;;;;32.72;13.93;;;;;;;;;;1035874;28;20703;-78
2022/10/21 01:39:40;;;;;;;35.03;13.80;;;;;;;;;;1036035;28;20029;-78
2022/10/21 01:40:18;;;;;;;35.50;12.98;;;;;;;;;;1032289;28;20037;-78
2022/10/21 01:41:10;;;;;;;27.83;13.07;;;;;;;;;;1030537;28;20030;-78
2022/10/21 01:41:51;;;;;;;44.40;12.50;;;;;;;;;;1027545;28;20027;-78
2022/10/21 01:42:25;;;;;;;32.55;11.52;;;;;;;;;;1030159;28;20064;-78
2022/10/21 01:42:57;;;;;;;39.90;13.07;;;;;;;;;;1031420;28;20026;-77
2022/10/21 01:43:27;;;;;;;33.72;12.27;;;;;;;;;;1031831;28;20121;-78
2022/10/21 01:43:58;;;;;;;36.97;13.68;;;;;;;;;;1034978;28;20455;-78
2022/10/21 01:44:29;;;;;;;39.10;11.95;;;;;;;;;;1037147;28;20243;-78
2022/10/21 01:45:09;;;;;;;48.85;14.00;;;;;;;;;;1036855;28;20026;-78
2022/10/21 01:45:46;;;;;;;38.95;11.88;;;;;;;;;;1036894;28;20088;-77
2022/10/21 01:46:19;;;;;;;32.42;12.07;;;;;;;;;;1035415;28;20208;-77
2022/10/21 01:47:13;;;;;;;26.52;8.65;;;;;;;;;;1035373;28;20272;-77
2022/10/21 01:47:50;;;;;;;13.38;4.43;;;;;;;;;;1032804;28;20014;-78
2022/10/21 01:48:27;;;;;;;29.00;11.20;;;;;;;;;;1031985;28;20048;-78
2022/10/21 01:49:00;;;;;;;30.05;12.73;;;;;;;;;;1037527;28;20056;-77
2022/10/21 01:49:37;;;;;;;27.73;10.48;;;;;;;;;;1037870;28;20374;-79
2022/10/21 01:50:20;;;;;;;18.35;8.13;;;;;;;;;;1037279;28;20033;-77
2022/10/21 01:50:52;;;;;;;24.27;9.45;;;;;;;;;;1036860;28;20026;-77
2022/10/21 01:51:26;;;;;;;26.23;10.05;;;;;;;;;;1036715;28;20045;-78
2022/10/21 01:51:58;;;;;;;19.42;8.07;;;;;;;;;;1036796;28;20017;-77
2022/10/21 01:52:31;;;;;;;26.05;9.85;;;;;;;;;;1038155;28;20028;-78
2022/10/21 01:53:04;;;;;;;29.58;10.98;;;;;;;;;;1035778;28;20017;-77
2022/10/21 01:53:43;;;;;;;12.23;6.60;;;;;;;;;;1037662;28;20033;-77
2022/10/21 01:54:22;;;;;;;19.73;7.47;;;;;;;;;;1037300;28;20036;-77
2022/10/21 01:54:56;;;;;;;12.43;6.50;;;;;;;;;;1036335;28;20457;-77
2022/10/21 01:55:29;;;;;;;16.67;5.88;;;;;;;;;;1035055;28;20033;-78
2022/10/21 01:56:01;;;;;;;13.35;6.43;;;;;;;;;;1034908;28;20036;-77
2022/10/21 01:56:33;;;;;;;17.63;7.00;;;;;;;;;;1034381;28;20014;-77
2022/10/21 01:57:07;;;;;;;18.33;6.80;;;;;;;;;;1033872;28;20832;-78
2022/10/21 01:57:40;;;;;;;12.43;5.35;;;;;;;;;;1030587;28;20565;-78
2022/10/21 01:58:14;;;;;;;19.15;5.30;;;;;;;;;;1033184;28;20058;-78
2022/10/21 01:58:46;;;;;;;14.48;5.60;;;;;;;;;;1031245;28;20054;-78
2022/10/21 01:59:18;;;;;;;17.55;4.47;;;;;;;;;;1032578;28;20022;-78
2022/10/21 01:59:51;;;;;;;19.60;5.50;;;;;;;;;;1031738;28;20608;-78
2022/10/21 02:00:22;;;;;;;14.90;6.53;;;;;;;;;;1031849;28;20030;-78
2022/10/21 02:00:54;;;;;;;17.67;6.60;;;;;;;;;;1033432;28;20116;-79
2022/10/21 02:01:25;;;;;;;12.23;6.20;;;;;;;;;;1034918;28;20077;-77
2022/10/21 02:01:58;;;;;;;15.95;4.65;;;;;;;;;;1037537;28;20048;-78
2022/10/21 02:02:30;;;;;;;14.07;6.15;;;;;;;;;;1037484;28;20567;-78
2022/10/21 02:03:03;;;;;;;14.65;5.93;;;;;;;;;;1035600;28;20208;-78
2022/10/21 02:03:36;;;;;;;16.23;5.30;;;;;;;;;;1035334;28;20029;-78
2022/10/21 02:04:14;;;;;;;13.18;5.40;;;;;;;;;;1033885;28;20124;-77
2022/10/21 02:04:46;;;;;;;15.82;5.80;;;;;;;;;;1033739;28;20026;-78
2022/10/21 02:05:24;;;;;;;20.70;7.50;;;;;;;;;;1032597;28;20482;-79
2022/10/21 02:05:55;;;;;;;31.77;6.55;;;;;;;;;;1036531;28;20033;-78
2022/10/21 02:06:25;;;;;;;18.95;7.55;;;;;;;;;;1033676;28;20030;-78
2022/10/21 02:06:56;;;;;;;30.27;6.85;;;;;;;;;;1038505;28;20029;-77
2022/10/21 02:07:27;;;;;;;16.25;6.55;;;;;;;;;;1036330;28;20029;-77
2022/10/21 02:07:58;;;;;;;12.60;6.53;;;;;;;;;;1035791;28;20026;-78
2022/10/21 02:08:29;;;;;;;23.55;7.22;;;;;;;;;;1037316;28;20095;-77
2022/10/21 02:08:59;;;;;;;17.75;6.28;;;;;;;;;;1037465;28;20044;-77
2022/10/21 02:09:30;;;;;;;18.00;7.13;;;;;;;;;;1034571;28;20029;-77
2022/10/21 02:10:00;;;;;;;13.13;6.32;;;;;;;;;;1037269;28;20021;-77
2022/10/21 02:10:33;;;;;;;26.52;7.20;;;;;;;;;;1034765;28;20096;-77
2022/10/21 02:11:06;;;;;;;16.52;7.95;;;;;;;;;;1033961;28;20088;-77
2022/10/21 02:11:38;;;;;;;18.67;6.78;;;;;;;;;;1032338;28;20501;-77
2022/10/21 02:12:09;;;;;;;13.15;5.85;;;;;;;;;;1038042;28;20334;-77
2022/10/21 02:12:41;;;;;;;16.48;8.85;;;;;;;;;;1038122;28;20028;-77
2022/10/21 02:13:15;;;;;;;25.13;7.57;;;;;;;;;;1039514;28;20036;-77
2022/10/21 02:13:51;;;;;;;15.30;7.40;;;;;;;;;;1035042;28;20056;-76
2022/10/21 02:14:24;;;;;;;25.05;7.28;;;;;;;;;;1038132;28;20022;-77
2022/10/21 02:14:57;;;;;;;33.63;6.95;;;;;;;;;;1037264;28;20079;-77
2022/10/21 02:15:29;;;;;;;26.77;8.18;;;;;;;;;;1036968;28;20034;-77
2022/10/21 02:16:00;;;;;;;21.58;8.98;;;;;;;;;;1036242;28;20441;-76
2022/10/21 02:16:33;;;;;;;18.80;6.95;;;;;;;;;;1038126;28;20480;-77
2022/10/21 02:17:04;;;;;;;21.38;8.70;;;;;;;;;;1033968;28;20030;-77
2022/10/21 02:17:35;;;;;;;21.27;7.68;;;;;;;;;;1035244;28;20028;-76
2022/10/21 02:18:07;;;;;;;18.98;9.38;;;;;;;;;;1035228;28;20060;-77
2022/10/21 02:18:38;;;;;;;14.65;7.35;;;;;;;;;;1034957;28;20146;-76
2022/10/21 02:19:17;;;;;;;21.65;6.82;;;;;;;;;;1033321;28;20068;-77
2022/10/21 02:19:47;;;;;;;12.55;6.47;;;;;;;;;;1031318;28;20029;-77
2022/10/21 02:20:19;;;;;;;14.75;6.78;;;;;;;;;;1034124;28;20453;-77
2022/10/21 02:21:01;;;;;;;17.80;7.07;;;;;;;;;;1034852;28;20060;-77
2022/10/21 02:21:34;;;;;;;15.50;7.18;;;;;;;;;;1033054;28;20026;-76
2022/10/21 02:22:05;;;;;;;14.02;6.80;;;;;;;;;;1032352;28;20023;-76
2022/10/21 02:22:36;;;;;;;21.85;7.15;;;;;;;;;;1033327;28;20030;-76
2022/10/21 02:23:08;;;;;;;30.80;7.45;;;;;;;;;;1036790;28;20030;-77
2022/10/21 02:24:03;;;;;;;13.45;6.00;;;;;;;;;;1034839;28;20075;-77
2022/10/21 02:25:09;;;;;;;23.60;6.53;;;;;;;;;;1037074;28;21007;-77
2022/10/21 02:25:43;;;;;;;39.40;8.95;;;;;;;;;;1016747;29;20032;-78
2022/10/21 02:26:14;;;;;;;13.15;6.45;;;;;;;;;;1017278;29;20111;-78
2022/10/21 02:26:45;;;;;;;16.35;7.28;;;;;;;;;;1028229;28;20484;-78
2022/10/21 02:27:16;;;;;;;13.88;7.75;;;;;;;;;;1033587;28;20060;-78
2022/10/21 02:27:47;;;;;;;17.55;5.90;;;;;;;;;;1034251;28;20053;-77
2022/10/21 02:28:18;;;;;;;21.60;8.73;;;;;;;;;;1033510;28;20024;-76
2022/10/21 02:28:49;;;;;;;16.77;8.30;;;;;;;;;;1038413;28;20039;-77
2022/10/21 02:29:21;;;;;;;19.23;7.32;;;;;;;;;;1034960;28;20021;-77
2022/10/21 02:29:56;;;;;;;14.82;6.40;;;;;;;;;;1038857;28;20112;-77
2022/10/21 02:30:30;;;;;;;15.25;6.57;;;;;;;;;;1036774;28;20494;-77
2022/10/21 02:31:10;;;;;;;37.10;11.40;;;;;;;;;;1031900;28;20025;-78
2022/10/21 02:31:40;;;;;;;;;;;;;;;;;;1033445;28;20120;-78
2022/10/21 02:32:14;;;;;;;39.22;7.93;;;;;;;;;;1036014;28;19909;-77
2022/10/21 02:32:50;;;;;;;18.90;7.05;;;;;;;;;;1035250;28;20030;-78
2022/10/21 02:33:43;;;;;;;25.10;7.40;;;;;;;;;;1036697;28;20092;-77
2022/10/21 02:34:26;;;;;;;18.98;8.25;;;;;;;;;;1034661;28;20022;-78
2022/10/21 02:35:21;;;;;;;14.25;7.88;;;;;;;;;;1033803;28;20064;-79
2022/10/21 02:35:58;;;;;;;13.50;6.75;;;;;;;;;;1035977;28;20018;-78
2022/10/21 02:36:47;;;;;;;19.90;8.32;;;;;;;;;;1034950;28;20140;-78
2022/10/21 02:37:27;;;;;;;17.95;7.55;;;;;;;;;;1035645;28;20486;-80
2022/10/21 02:37:58;;;;;;;25.05;9.23;;;;;;;;;;1039322;28;20030;-77
2022/10/21 02:38:32;;;;;;;26.23;8.10;;;;;;;;;;1039239;28;20032;-79
2022/10/21 02:39:07;;;;;;;19.02;6.70;;;;;;;;;;1039031;28;20036;-78
2022/10/21 02:39:41;;;;;;;26.60;8.00;;;;;;;;;;1036604;28;20151;-77
2022/10/21 02:40:17;;;;;;;25.40;8.60;;;;;;;;;;1035979;28;20060;-77
2022/10/21 02:40:53;;;;;;;15.38;7.90;;;;;;;;;;1035657;28;20079;-76
2022/10/21 02:41:25;;;;;;;20.88;8.50;;;;;;;;;;1036288;28;20048;-76
2022/10/21 02:41:57;;;;;;;35.47;10.88;;;;;;;;;;1036851;28;20049;-76
2022/10/21 02:42:30;;;;;;;30.80;8.50;;;;;;;;;;1031421;28;20026;-76
2022/10/21 02:43:27;;;;;;;25.20;9.00;;;;;;;;;;1037035;28;20096;-76
2022/10/21 02:44:01;;;;;;;25.17;11.32;;;;;;;;;;1025871;28;20039;-77
2022/10/21 02:44:32;;;;;;;23.33;12.32;;;;;;;;;;1034658;28;20041;-77
2022/10/21 02:45:03;;;;;;;44.42;13.38;;;;;;;;;;1035237;28;20875;-76
2022/10/21 02:45:34;;;;;;;27.63;10.55;;;;;;;;;;1030962;28;20022;-76
2022/10/21 02:46:06;;;;;;;26.60;10.00;;;;;;;;;;1034677;28;20030;-77
2022/10/21 02:46:39;;;;;;;25.30;10.02;;;;;;;;;;1031874;28;21133;-77
2022/10/21 02:47:10;;;;;;;34.92;9.35;;;;;;;;;;1031272;28;20030;-77
2022/10/21 02:47:42;;;;;;;26.55;7.45;;;;;;;;;;1025213;28;20799;-76
2022/10/21 02:48:12;;;;;;;22.50;8.35;;;;;;;;;;1033843;28;20530;-76
2022/10/21 02:48:44;;;;;;;23.45;7.80;;;;;;;;;;1036154;28;20026;-76
2022/10/21 02:49:14;;;;;;;23.33;9.07;;;;;;;;;;1032759;28;20422;-77
2022/10/21 02:49:45;;;;;;;27.17;8.77;;;;;;;;;;1031546;28;20109;-77
2022/10/21 02:50:17;;;;;;;31.65;7.40;;;;;;;;;;1031774;28;20040;-76
2022/10/21 02:50:47;;;;;;;22.27;7.55;;;;;;;;;;1033017;28;20520;-77
2022/10/21 02:51:18;;;;;;;26.50;9.52;;;;;;;;;;1029646;28;20134;-77
2022/10/21 02:51:48;;;;;;;24.27;10.45;;;;;;;;;;1031403;28;20103;-77
2022/10/21 02:52:19;;;;;;;34.00;10.82;;;;;;;;;;1035813;28;20029;-77
2022/10/21 02:52:54;;;;;;;33.38;7.90;;;;;;;;;;1036859;28;20029;-77
2022/10/21 02:53:24;;;;;;;22.02;7.78;;;;;;;;;;1036374;28;20403;-77
2022/10/21 02:53:56;;;;;;;16.83;8.27;;;;;;;;;;1031828;28;20030;-77
2022/10/21 02:54:26;;;;;;;35.42;9.95;;;;;;;;;;1032657;28;20786;-77
2022/10/21 02:54:57;;;;;;;22.27;7.70;;;;;;;;;;1032715;28;20026;-77
2022/10/21 02:55:27;;;;;;;34.78;9.43;;;;;;;;;;1032306;28;20193;-77
2022/10/21 02:55:58;;;;;;;21.48;7.93;;;;;;;;;;1037186;28;20057;-77
2022/10/21 02:56:29;;;;;;;31.27;8.27;;;;;;;;;;1036349;28;20048;-76
2022/10/21 02:56:59;;;;;;;21.40;8.60;;;;;;;;;;1036648;28;20522;-76
2022/10/21 02:57:30;;;;;;;27.98;9.63;;;;;;;;;;1034366;28;20236;-77
2022/10/21 02:58:10;;;;;;;23.73;7.78;;;;;;;;;;1033438;28;20029;-77
2022/10/21 02:58:44;;;;;;;;;;;;;;;;;;1036099;28;20026;-76
2022/10/21 02:59:15;;;;;;;19.77;6.32;;;;;;;;;;1031026;28;20299;-76
2022/10/21 02:59:45;;;;;;;23.45;7.88;;;;;;;;;;1031099;28;20129;-76
2022/10/21 03:00:16;;;;;;;18.38;10.15;;;;;;;;;;1032976;28;20536;-76
2022/10/21 03:00:46;;;;;;;30.38;8.65;;;;;;;;;;1031525;28;20026;-77
2022/10/21 03:01:18;;;;;;;20.77;8.00;;;;;;;;;;1033078;28;20033;-77
2022/10/21 03:01:49;;;;;;;23.92;8.48;;;;;;;;;;1032112;28;20544;-79
2022/10/21 03:02:20;;;;;;;30.42;8.70;;;;;;;;;;1028465;28;20684;-78
2022/10/21 03:02:50;;;;;;;28.98;8.68;;;;;;;;;;1030277;28;20125;-78
2022/10/21 03:03:21;;;;;;;20.25;9.23;;;;;;;;;;1027855;28;20101;-79
2022/10/21 03:03:52;;;;;;;22.52;7.40;;;;;;;;;;1032628;28;20026;-79
2022/10/21 03:04:23;;;;;;;24.25;8.50;;;;;;;;;;1036426;28;20519;-79
2022/10/21 03:04:54;;;;;;;26.95;7.10;;;;;;;;;;1033552;28;20018;-77
2022/10/21 03:05:25;;;;;;;29.10;8.40;;;;;;;;;;1034797;28;20022;-79
2022/10/21 03:05:56;;;;;;;27.17;8.68;;;;;;;;;;1034898;28;20531;-78
2022/10/21 03:06:26;;;;;;;20.00;7.18;;;;;;;;;;1030391;28;20022;-77
2022/10/21 03:06:57;;;;;;;21.38;7.82;;;;;;;;;;1033447;28;20196;-79
2022/10/21 03:07:27;;;;;;;26.45;8.43;;;;;;;;;;1031422;28;20077;-78
2022/10/21 03:07:58;;;;;;;39.88;8.43;;;;;;;;;;1032410;28;20117;-78
2022/10/21 03:08:29;;;;;;;20.67;8.23;;;;;;;;;;1033503;28;20458;-78
2022/10/21 03:09:04;;;;;;;29.58;8.85;;;;;;;;;;1036918;28;20063;-77
2022/10/21 03:09:35;;;;;;;34.38;7.68;;;;;;;;;;1035329;28;20025;-77
2022/10/21 03:10:06;;;;;;;24.00;9.23;;;;;;;;;;1035646;28;20018;-77
2022/10/21 03:10:36;;;;;;;40.42;9.60;;;;;;;;;;1034797;28;20393;-80
2022/10/21 03:11:07;;;;;;;29.08;8.13;;;;;;;;;;1034403;28;20029;-79
2022/10/21 03:11:37;;;;;;;21.42;6.97;;;;;;;;;;1033364;28;20268;-79
2022/10/21 03:12:08;;;;;;;30.45;7.32;;;;;;;;;;1034849;28;20384;-79
2022/10/21 03:12:39;;;;;;;20.15;8.15;;;;;;;;;;1039661;28;20014;-77
2022/10/21 03:13:09;;;;;;;21.35;9.23;;;;;;;;;;1036705;28;20470;-78
2022/10/21 03:13:40;;;;;;;21.50;8.38;;;;;;;;;;1034291;28;20104;-77
2022/10/21 03:14:10;;;;;;;17.65;6.95;;;;;;;;;;1033622;28;20019;-77
2022/10/21 03:14:41;;;;;;;24.67;8.43;;;;;;;;;;1034364;28;20033;-76
2022/10/21 03:15:11;;;;;;;24.35;7.28;;;;;;;;;;1037454;28;20506;-77
2022/10/21 03:15:42;;;;;;;17.52;7.80;;;;;;;;;;1040903;28;20060;-77
2022/10/21 03:16:13;;;;;;;33.13;7.45;;;;;;;;;;1038947;28;20025;-77
2022/10/21 03:16:44;;;;;;;24.73;7.78;;;;;;;;;;1040987;28;20025;-76